Roddickton, Canada
Current Conditions -  °F | °C
As of 5:04 AM on Thursday 29 Jan 2015 (Local Time) from CYAY Reporting Station
Light Snow Light Snow  
Wind Chill: 10°   Ceiling: 300
Heat Index: 21°   Visibility: 6mi
Dew Point: 21°   Wind: 10mph
Humidity: 100%   Direction: 50°NE
Pressure: 29.71"   Gusts: NA
Location:  50.85°N, 56.12°W
Report Text: CYAY 290804Z AUTO 05009KT 6SM -SN OVC003 M06/M06 A2971 RMK SLP064
Loading
Personal Weather Stations






























Interactive Weather Map New forecast layout! Learn more

10-Day Weather Forecast

Advertisements
Track Severe Weather on mobile